sensor_id;sensor_type;location;lat;lon;timestamp;P1;durP1;ratioP1;P2;durP2;ratioP2
62435;SDS011;48480;50.252;18.848;2023-07-09T00:01:29;9.00;;;6.00;;
62435;SDS011;48480;50.252;18.848;2023-07-09T00:04:14;8.30;;;6.20;;
62435;SDS011;48480;50.252;18.848;2023-07-09T00:07:00;7.20;;;5.90;;
62435;SDS011;48480;50.252;18.848;2023-07-09T00:09:47;7.90;;;6.20;;
62435;SDS011;48480;50.252;18.848;2023-07-09T00:12:30;9.90;;;6.20;;
62435;SDS011;48480;50.252;18.848;2023-07-09T00:15:15;8.70;;;5.70;;
62435;SDS011;48480;50.252;18.848;2023-07-09T00:17:59;6.80;;;5.60;;
62435;SDS011;48480;50.252;18.848;2023-07-09T00:20:44;6.90;;;6.20;;
62435;SDS011;48480;50.252;18.848;2023-07-09T00:23:32;7.10;;;6.30;;
62435;SDS011;48480;50.252;18.848;2023-07-09T00:26:17;8.70;;;6.30;;
62435;SDS011;48480;50.252;18.848;2023-07-09T00:29:08;6.50;;;5.50;;
62435;SDS011;48480;50.252;18.848;2023-07-09T00:31:54;7.20;;;5.80;;
62435;SDS011;48480;50.252;18.848;2023-07-09T00:34:38;7.80;;;5.50;;
62435;SDS011;48480;50.252;18.848;2023-07-09T00:37:23;8.90;;;5.80;;
62435;SDS011;48480;50.252;18.848;2023-07-09T00:40:17;8.30;;;6.10;;
62435;SDS011;48480;50.252;18.848;2023-07-09T00:43:08;6.60;;;5.80;;
62435;SDS011;48480;50.252;18.848;2023-07-09T00:49:08;8.20;;;5.90;;
62435;SDS011;48480;50.252;18.848;2023-07-09T00:51:53;9.60;;;6.30;;
62435;SDS011;48480;50.252;18.848;2023-07-09T00:54:41;7.10;;;5.90;;
62435;SDS011;48480;50.252;18.848;2023-07-09T00:57:30;7.10;;;6.10;;
62435;SDS011;48480;50.252;18.848;2023-07-09T01:00:14;7.20;;;6.20;;
62435;SDS011;48480;50.252;18.848;2023-07-09T01:03:00;7.40;;;6.50;;
62435;SDS011;48480;50.252;18.848;2023-07-09T01:05:47;7.40;;;6.10;;
62435;SDS011;48480;50.252;18.848;2023-07-09T01:08:36;7.90;;;6.40;;
62435;SDS011;48480;50.252;18.848;2023-07-09T01:11:25;8.90;;;6.20;;
62435;SDS011;48480;50.252;18.848;2023-07-09T01:14:10;9.80;;;6.30;;
62435;SDS011;48480;50.252;18.848;2023-07-09T01:16:58;8.40;;;6.60;;
62435;SDS011;48480;50.252;18.848;2023-07-09T01:19:48;7.70;;;6.20;;
62435;SDS011;48480;50.252;18.848;2023-07-09T01:22:34;8.40;;;6.70;;
62435;SDS011;48480;50.252;18.848;2023-07-09T01:25:20;8.80;;;6.60;;
62435;SDS011;48480;50.252;18.848;2023-07-09T01:28:05;7.90;;;6.40;;
62435;SDS011;48480;50.252;18.848;2023-07-09T01:30:49;7.50;;;5.90;;
62435;SDS011;48480;50.252;18.848;2023-07-09T01:33:38;7.80;;;6.30;;
62435;SDS011;48480;50.252;18.848;2023-07-09T01:36:28;9.20;;;6.00;;
62435;SDS011;48480;50.252;18.848;2023-07-09T01:39:12;7.00;;;5.80;;
62435;SDS011;48480;50.252;18.848;2023-07-09T01:41:56;8.50;;;5.90;;
62435;SDS011;48480;50.252;18.848;2023-07-09T01:44:40;7.40;;;5.00;;
62435;SDS011;48480;50.252;18.848;2023-07-09T01:47:24;7.80;;;5.30;;
62435;SDS011;48480;50.252;18.848;2023-07-09T01:50:08;6.70;;;6.00;;
62435;SDS011;48480;50.252;18.848;2023-07-09T01:52:53;9.30;;;6.10;;
62435;SDS011;48480;50.252;18.848;2023-07-09T01:55:39;8.30;;;6.30;;
62435;SDS011;48480;50.252;18.848;2023-07-09T01:58:23;7.70;;;6.40;;
62435;SDS011;48480;50.252;18.848;2023-07-09T02:01:09;7.60;;;5.90;;
62435;SDS011;48480;50.252;18.848;2023-07-09T02:03:53;7.40;;;6.20;;
62435;SDS011;48480;50.252;18.848;2023-07-09T02:06:37;7.70;;;6.50;;
62435;SDS011;48480;50.252;18.848;2023-07-09T02:09:21;8.50;;;6.40;;
62435;SDS011;48480;50.252;18.848;2023-07-09T02:12:06;8.30;;;6.00;;
62435;SDS011;48480;50.252;18.848;2023-07-09T02:14:51;7.70;;;6.60;;
62435;SDS011;48480;50.252;18.848;2023-07-09T02:17:35;8.80;;;6.50;;
62435;SDS011;48480;50.252;18.848;2023-07-09T02:20:19;7.40;;;6.40;;
62435;SDS011;48480;50.252;18.848;2023-07-09T02:23:03;10.60;;;6.80;;
62435;SDS011;48480;50.252;18.848;2023-07-09T02:25:49;8.90;;;6.40;;
62435;SDS011;48480;50.252;18.848;2023-07-09T02:28:34;7.40;;;6.00;;
62435;SDS011;48480;50.252;18.848;2023-07-09T02:31:18;9.10;;;6.10;;
62435;SDS011;48480;50.252;18.848;2023-07-09T02:34:03;7.20;;;6.00;;
62435;SDS011;48480;50.252;18.848;2023-07-09T02:36:47;8.40;;;6.30;;
62435;SDS011;48480;50.252;18.848;2023-07-09T02:39:31;7.80;;;6.00;;
62435;SDS011;48480;50.252;18.848;2023-07-09T02:42:16;7.20;;;6.30;;
62435;SDS011;48480;50.252;18.848;2023-07-09T02:45:02;8.00;;;6.30;;
62435;SDS011;48480;50.252;18.848;2023-07-09T02:47:47;7.40;;;6.50;;
62435;SDS011;48480;50.252;18.848;2023-07-09T02:50:32;8.50;;;6.40;;
62435;SDS011;48480;50.252;18.848;2023-07-09T02:53:17;8.50;;;6.60;;
62435;SDS011;48480;50.252;18.848;2023-07-09T02:56:01;9.10;;;6.60;;
62435;SDS011;48480;50.252;18.848;2023-07-09T02:58:45;7.10;;;6.40;;
62435;SDS011;48480;50.252;18.848;2023-07-09T03:01:29;7.60;;;6.30;;
62435;SDS011;48480;50.252;18.848;2023-07-09T03:04:14;9.10;;;5.50;;
62435;SDS011;48480;50.252;18.848;2023-07-09T03:06:59;6.40;;;5.70;;
62435;SDS011;48480;50.252;18.848;2023-07-09T03:09:46;8.50;;;5.70;;
62435;SDS011;48480;50.252;18.848;2023-07-09T03:12:30;9.40;;;6.50;;
62435;SDS011;48480;50.252;18.848;2023-07-09T03:15:14;8.20;;;6.30;;
62435;SDS011;48480;50.252;18.848;2023-07-09T03:17:58;8.20;;;6.50;;
62435;SDS011;48480;50.252;18.848;2023-07-09T03:20:42;11.30;;;6.80;;
62435;SDS011;48480;50.252;18.848;2023-07-09T03:23:26;7.00;;;6.30;;
62435;SDS011;48480;50.252;18.848;2023-07-09T03:26:11;8.00;;;7.10;;
62435;SDS011;48480;50.252;18.848;2023-07-09T03:28:55;9.80;;;7.30;;
62435;SDS011;48480;50.252;18.848;2023-07-09T03:31:39;10.90;;;7.10;;
62435;SDS011;48480;50.252;18.848;2023-07-09T03:34:24;10.40;;;7.10;;
62435;SDS011;48480;50.252;18.848;2023-07-09T03:37:08;7.90;;;6.50;;
62435;SDS011;48480;50.252;18.848;2023-07-09T03:39:52;10.80;;;6.50;;
62435;SDS011;48480;50.252;18.848;2023-07-09T03:42:37;9.30;;;6.80;;
62435;SDS011;48480;50.252;18.848;2023-07-09T03:45:21;8.60;;;6.80;;
62435;SDS011;48480;50.252;18.848;2023-07-09T03:48:05;9.10;;;6.70;;
62435;SDS011;48480;50.252;18.848;2023-07-09T03:50:50;8.40;;;7.00;;
62435;SDS011;48480;50.252;18.848;2023-07-09T03:53:34;8.50;;;6.70;;
62435;SDS011;48480;50.252;18.848;2023-07-09T03:56:18;7.50;;;6.70;;
62435;SDS011;48480;50.252;18.848;2023-07-09T03:59:02;8.40;;;6.80;;
62435;SDS011;48480;50.252;18.848;2023-07-09T04:01:46;9.50;;;7.40;;
62435;SDS011;48480;50.252;18.848;2023-07-09T04:04:30;9.60;;;7.20;;
62435;SDS011;48480;50.252;18.848;2023-07-09T04:07:15;9.20;;;7.10;;
62435;SDS011;48480;50.252;18.848;2023-07-09T04:09:59;11.20;;;7.10;;
62435;SDS011;48480;50.252;18.848;2023-07-09T04:12:44;11.00;;;7.10;;
62435;SDS011;48480;50.252;18.848;2023-07-09T04:15:28;9.50;;;6.70;;
62435;SDS011;48480;50.252;18.848;2023-07-09T04:18:13;8.90;;;6.30;;
62435;SDS011;48480;50.252;18.848;2023-07-09T04:20:57;8.30;;;6.90;;
62435;SDS011;48480;50.252;18.848;2023-07-09T04:23:41;9.70;;;7.40;;
62435;SDS011;48480;50.252;18.848;2023-07-09T04:26:25;8.30;;;6.70;;
62435;SDS011;48480;50.252;18.848;2023-07-09T04:29:11;9.70;;;7.20;;
62435;SDS011;48480;50.252;18.848;2023-07-09T04:31:56;8.60;;;7.00;;
62435;SDS011;48480;50.252;18.848;2023-07-09T04:34:41;11.40;;;7.30;;
62435;SDS011;48480;50.252;18.848;2023-07-09T04:37:25;8.50;;;7.50;;
62435;SDS011;48480;50.252;18.848;2023-07-09T04:40:09;10.60;;;7.50;;
62435;SDS011;48480;50.252;18.848;2023-07-09T04:42:55;8.50;;;7.20;;
62435;SDS011;48480;50.252;18.848;2023-07-09T04:45:39;10.10;;;7.20;;
62435;SDS011;48480;50.252;18.848;2023-07-09T04:48:24;7.40;;;6.40;;
62435;SDS011;48480;50.252;18.848;2023-07-09T04:51:08;7.30;;;6.50;;
62435;SDS011;48480;50.252;18.848;2023-07-09T04:53:52;10.60;;;7.20;;
62435;SDS011;48480;50.252;18.848;2023-07-09T04:56:37;8.30;;;6.40;;
62435;SDS011;48480;50.252;18.848;2023-07-09T04:59:21;9.50;;;6.30;;
62435;SDS011;48480;50.252;18.848;2023-07-09T05:02:06;6.30;;;5.60;;
62435;SDS011;48480;50.252;18.848;2023-07-09T05:04:51;7.40;;;6.00;;
62435;SDS011;48480;50.252;18.848;2023-07-09T05:07:35;7.00;;;5.90;;
62435;SDS011;48480;50.252;18.848;2023-07-09T05:10:19;8.60;;;5.90;;
62435;SDS011;48480;50.252;18.848;2023-07-09T05:13:03;7.60;;;6.60;;
62435;SDS011;48480;50.252;18.848;2023-07-09T05:15:48;6.90;;;6.00;;
62435;SDS011;48480;50.252;18.848;2023-07-09T05:18:34;8.00;;;6.20;;
62435;SDS011;48480;50.252;18.848;2023-07-09T05:21:18;11.10;;;7.20;;
62435;SDS011;48480;50.252;18.848;2023-07-09T05:24:02;7.80;;;6.90;;
62435;SDS011;48480;50.252;18.848;2023-07-09T05:26:47;7.80;;;6.70;;
62435;SDS011;48480;50.252;18.848;2023-07-09T05:29:31;9.00;;;6.30;;
62435;SDS011;48480;50.252;18.848;2023-07-09T05:32:15;11.60;;;6.90;;
62435;SDS011;48480;50.252;18.848;2023-07-09T05:34:59;7.60;;;6.80;;
62435;SDS011;48480;50.252;18.848;2023-07-09T05:37:43;9.70;;;6.60;;
62435;SDS011;48480;50.252;18.848;2023-07-09T05:40:27;8.60;;;6.20;;
62435;SDS011;48480;50.252;18.848;2023-07-09T05:43:11;8.70;;;6.10;;
62435;SDS011;48480;50.252;18.848;2023-07-09T05:45:56;7.30;;;6.10;;
62435;SDS011;48480;50.252;18.848;2023-07-09T05:48:40;10.40;;;6.70;;
62435;SDS011;48480;50.252;18.848;2023-07-09T05:51:25;7.80;;;6.10;;
62435;SDS011;48480;50.252;18.848;2023-07-09T05:54:10;8.60;;;5.90;;
62435;SDS011;48480;50.252;18.848;2023-07-09T05:56:55;7.30;;;5.90;;
62435;SDS011;48480;50.252;18.848;2023-07-09T05:59:41;9.90;;;6.20;;
62435;SDS011;48480;50.252;18.848;2023-07-09T06:02:26;10.20;;;6.20;;
62435;SDS011;48480;50.252;18.848;2023-07-09T06:05:13;7.80;;;6.10;;
62435;SDS011;48480;50.252;18.848;2023-07-09T06:07:59;8.80;;;5.50;;
62435;SDS011;48480;50.252;18.848;2023-07-09T06:10:58;7.80;;;5.30;;
62435;SDS011;48480;50.252;18.848;2023-07-09T06:13:47;7.30;;;5.50;;
62435;SDS011;48480;50.252;18.848;2023-07-09T06:16:34;8.70;;;5.70;;
62435;SDS011;48480;50.252;18.848;2023-07-09T06:19:18;6.40;;;5.70;;
62435;SDS011;48480;50.252;18.848;2023-07-09T06:22:02;8.70;;;5.70;;
62435;SDS011;48480;50.252;18.848;2023-07-09T06:24:47;8.00;;;5.20;;
62435;SDS011;48480;50.252;18.848;2023-07-09T06:27:31;9.20;;;5.30;;
62435;SDS011;48480;50.252;18.848;2023-07-09T06:30:15;5.40;;;4.80;;
62435;SDS011;48480;50.252;18.848;2023-07-09T06:33:01;9.20;;;5.40;;
62435;SDS011;48480;50.252;18.848;2023-07-09T06:35:49;8.80;;;4.90;;
62435;SDS011;48480;50.252;18.848;2023-07-09T06:38:35;5.70;;;4.70;;
62435;SDS011;48480;50.252;18.848;2023-07-09T06:41:19;7.80;;;5.00;;
62435;SDS011;48480;50.252;18.848;2023-07-09T06:44:05;6.10;;;4.70;;
62435;SDS011;48480;50.252;18.848;2023-07-09T06:46:50;7.30;;;5.10;;
62435;SDS011;48480;50.252;18.848;2023-07-09T06:49:35;6.10;;;4.90;;
62435;SDS011;48480;50.252;18.848;2023-07-09T06:52:19;6.90;;;4.60;;
62435;SDS011;48480;50.252;18.848;2023-07-09T06:55:03;5.00;;;4.50;;
62435;SDS011;48480;50.252;18.848;2023-07-09T06:57:48;5.70;;;4.70;;
62435;SDS011;48480;50.252;18.848;2023-07-09T07:00:33;5.10;;;4.00;;
62435;SDS011;48480;50.252;18.848;2023-07-09T07:03:18;5.50;;;4.30;;
62435;SDS011;48480;50.252;18.848;2023-07-09T07:06:03;5.80;;;4.30;;
62435;SDS011;48480;50.252;18.848;2023-07-09T07:08:50;6.20;;;4.40;;
62435;SDS011;48480;50.252;18.848;2023-07-09T07:11:34;4.70;;;3.70;;
62435;SDS011;48480;50.252;18.848;2023-07-09T07:14:18;5.40;;;3.80;;
62435;SDS011;48480;50.252;18.848;2023-07-09T07:17:02;5.30;;;3.90;;
62435;SDS011;48480;50.252;18.848;2023-07-09T07:19:46;5.90;;;4.00;;
62435;SDS011;48480;50.252;18.848;2023-07-09T07:22:30;4.60;;;4.00;;
62435;SDS011;48480;50.252;18.848;2023-07-09T07:25:14;4.70;;;4.00;;
62435;SDS011;48480;50.252;18.848;2023-07-09T07:28:00;6.20;;;4.30;;
62435;SDS011;48480;50.252;18.848;2023-07-09T07:30:44;6.10;;;4.30;;
62435;SDS011;48480;50.252;18.848;2023-07-09T07:33:28;5.80;;;4.60;;
62435;SDS011;48480;50.252;18.848;2023-07-09T07:36:12;7.70;;;4.70;;
62435;SDS011;48480;50.252;18.848;2023-07-09T07:38:57;5.20;;;4.10;;
62435;SDS011;48480;50.252;18.848;2023-07-09T07:41:41;6.00;;;4.00;;
62435;SDS011;48480;50.252;18.848;2023-07-09T07:44:25;5.60;;;4.30;;
62435;SDS011;48480;50.252;18.848;2023-07-09T07:47:09;6.00;;;4.20;;
62435;SDS011;48480;50.252;18.848;2023-07-09T07:49:53;6.20;;;4.50;;
62435;SDS011;48480;50.252;18.848;2023-07-09T07:52:37;5.80;;;4.70;;
62435;SDS011;48480;50.252;18.848;2023-07-09T07:55:21;5.70;;;4.40;;
62435;SDS011;48480;50.252;18.848;2023-07-09T07:58:05;7.10;;;4.60;;
62435;SDS011;48480;50.252;18.848;2023-07-09T08:00:56;4.70;;;4.20;;
62435;SDS011;48480;50.252;18.848;2023-07-09T08:03:41;6.50;;;4.50;;
62435;SDS011;48480;50.252;18.848;2023-07-09T08:06:27;4.90;;;4.40;;
62435;SDS011;48480;50.252;18.848;2023-07-09T08:09:12;5.30;;;4.80;;
62435;SDS011;48480;50.252;18.848;2023-07-09T08:11:56;4.90;;;3.60;;
62435;SDS011;48480;50.252;18.848;2023-07-09T08:14:40;5.00;;;4.10;;
62435;SDS011;48480;50.252;18.848;2023-07-09T08:17:25;4.80;;;3.80;;
62435;SDS011;48480;50.252;18.848;2023-07-09T08:20:09;5.80;;;4.80;;
62435;SDS011;48480;50.252;18.848;2023-07-09T08:22:54;6.40;;;4.10;;
62435;SDS011;48480;50.252;18.848;2023-07-09T08:25:38;6.00;;;4.00;;
62435;SDS011;48480;50.252;18.848;2023-07-09T08:28:22;5.50;;;3.80;;
62435;SDS011;48480;50.252;18.848;2023-07-09T08:31:07;4.70;;;3.20;;
62435;SDS011;48480;50.252;18.848;2023-07-09T08:33:52;4.70;;;3.70;;
62435;SDS011;48480;50.252;18.848;2023-07-09T08:36:36;4.30;;;3.70;;
62435;SDS011;48480;50.252;18.848;2023-07-09T08:39:21;5.70;;;3.90;;
62435;SDS011;48480;50.252;18.848;2023-07-09T08:42:12;5.70;;;4.00;;
62435;SDS011;48480;50.252;18.848;2023-07-09T08:50:54;5.40;;;3.60;;
62435;SDS011;48480;50.252;18.848;2023-07-09T08:54:04;5.00;;;3.50;;
62435;SDS011;48480;50.252;18.848;2023-07-09T08:56:53;3.80;;;3.20;;
62435;SDS011;48480;50.252;18.848;2023-07-09T08:59:42;4.90;;;3.40;;
62435;SDS011;48480;50.252;18.848;2023-07-09T09:02:39;5.20;;;3.30;;
62435;SDS011;48480;50.252;18.848;2023-07-09T09:05:31;4.30;;;3.50;;
62435;SDS011;48480;50.252;18.848;2023-07-09T09:11:22;6.50;;;3.30;;
62435;SDS011;48480;50.252;18.848;2023-07-09T09:17:01;3.50;;;2.90;;
62435;SDS011;48480;50.252;18.848;2023-07-09T09:19:56;4.30;;;3.00;;
62435;SDS011;48480;50.252;18.848;2023-07-09T09:22:46;4.20;;;3.10;;
62435;SDS011;48480;50.252;18.848;2023-07-09T09:25:35;3.70;;;3.10;;
62435;SDS011;48480;50.252;18.848;2023-07-09T09:28:23;4.20;;;3.30;;
62435;SDS011;48480;50.252;18.848;2023-07-09T09:31:11;3.60;;;3.00;;
62435;SDS011;48480;50.252;18.848;2023-07-09T09:33:55;4.10;;;2.70;;
62435;SDS011;48480;50.252;18.848;2023-07-09T09:36:40;3.20;;;2.90;;
62435;SDS011;48480;50.252;18.848;2023-07-09T09:39:25;3.20;;;2.60;;
62435;SDS011;48480;50.252;18.848;2023-07-09T09:42:10;4.10;;;2.80;;
62435;SDS011;48480;50.252;18.848;2023-07-09T09:44:55;3.50;;;2.80;;
62435;SDS011;48480;50.252;18.848;2023-07-09T09:47:40;3.80;;;2.70;;
62435;SDS011;48480;50.252;18.848;2023-07-09T09:50:25;6.10;;;2.90;;
62435;SDS011;48480;50.252;18.848;2023-07-09T09:56:11;3.10;;;2.40;;
62435;SDS011;48480;50.252;18.848;2023-07-09T09:58:58;3.70;;;2.80;;
62435;SDS011;48480;50.252;18.848;2023-07-09T10:01:43;4.80;;;2.50;;
62435;SDS011;48480;50.252;18.848;2023-07-09T10:04:27;3.10;;;2.80;;
62435;SDS011;48480;50.252;18.848;2023-07-09T10:07:15;3.70;;;2.40;;
62435;SDS011;48480;50.252;18.848;2023-07-09T10:10:12;4.60;;;2.70;;
62435;SDS011;48480;50.252;18.848;2023-07-09T10:13:19;4.60;;;2.60;;
62435;SDS011;48480;50.252;18.848;2023-07-09T10:19:21;3.10;;;2.30;;
62435;SDS011;48480;50.252;18.848;2023-07-09T10:25:53;3.90;;;3.10;;
62435;SDS011;48480;50.252;18.848;2023-07-09T10:35:26;3.60;;;2.70;;
62435;SDS011;48480;50.252;18.848;2023-07-09T10:38:39;3.10;;;2.60;;
62435;SDS011;48480;50.252;18.848;2023-07-09T10:41:26;3.60;;;2.60;;
62435;SDS011;48480;50.252;18.848;2023-07-09T10:44:25;5.30;;;2.90;;
62435;SDS011;48480;50.252;18.848;2023-07-09T10:47:23;3.60;;;2.50;;
62435;SDS011;48480;50.252;18.848;2023-07-09T10:50:27;3.80;;;2.70;;
62435;SDS011;48480;50.252;18.848;2023-07-09T10:53:39;3.40;;;2.80;;
62435;SDS011;48480;50.252;18.848;2023-07-09T10:56:39;3.70;;;2.80;;
62435;SDS011;48480;50.252;18.848;2023-07-09T10:59:33;5.30;;;2.80;;
62435;SDS011;48480;50.252;18.848;2023-07-09T11:02:26;4.10;;;2.60;;
62435;SDS011;48480;50.252;18.848;2023-07-09T11:05:14;6.00;;;3.10;;
62435;SDS011;48480;50.252;18.848;2023-07-09T11:08:03;3.90;;;2.60;;
62435;SDS011;48480;50.252;18.848;2023-07-09T11:10:58;3.60;;;2.60;;
62435;SDS011;48480;50.252;18.848;2023-07-09T11:13:50;5.40;;;2.80;;
62435;SDS011;48480;50.252;18.848;2023-07-09T11:16:41;3.80;;;2.80;;
62435;SDS011;48480;50.252;18.848;2023-07-09T11:19:29;4.00;;;2.90;;
62435;SDS011;48480;50.252;18.848;2023-07-09T11:22:20;5.10;;;2.80;;
62435;SDS011;48480;50.252;18.848;2023-07-09T11:25:14;3.60;;;2.80;;
62435;SDS011;48480;50.252;18.848;2023-07-09T11:28:10;3.80;;;2.80;;
62435;SDS011;48480;50.252;18.848;2023-07-09T11:30:55;5.10;;;3.10;;
62435;SDS011;48480;50.252;18.848;2023-07-09T11:37:01;5.50;;;2.90;;
62435;SDS011;48480;50.252;18.848;2023-07-09T11:39:47;16.20;;;14.00;;
62435;SDS011;48480;50.252;18.848;2023-07-09T11:42:32;7.70;;;4.40;;
62435;SDS011;48480;50.252;18.848;2023-07-09T11:45:22;3.50;;;2.90;;
62435;SDS011;48480;50.252;18.848;2023-07-09T11:48:17;3.80;;;3.00;;
62435;SDS011;48480;50.252;18.848;2023-07-09T11:51:34;3.80;;;2.90;;
62435;SDS011;48480;50.252;18.848;2023-07-09T11:54:24;3.30;;;2.80;;
62435;SDS011;48480;50.252;18.848;2023-07-09T11:57:10;3.70;;;3.10;;
62435;SDS011;48480;50.252;18.848;2023-07-09T12:00:01;6.10;;;3.10;;
62435;SDS011;48480;50.252;18.848;2023-07-09T12:02:45;5.10;;;3.20;;
62435;SDS011;48480;50.252;18.848;2023-07-09T12:05:29;4.50;;;2.80;;
62435;SDS011;48480;50.252;18.848;2023-07-09T12:08:14;4.10;;;3.10;;
62435;SDS011;48480;50.252;18.848;2023-07-09T12:11:00;4.40;;;3.10;;
62435;SDS011;48480;50.252;18.848;2023-07-09T12:13:46;4.50;;;3.20;;
62435;SDS011;48480;50.252;18.848;2023-07-09T12:16:32;3.70;;;2.70;;
62435;SDS011;48480;50.252;18.848;2023-07-09T12:19:24;3.40;;;2.90;;
62435;SDS011;48480;50.252;18.848;2023-07-09T12:22:16;5.20;;;3.00;;
62435;SDS011;48480;50.252;18.848;2023-07-09T12:25:07;4.80;;;3.20;;
62435;SDS011;48480;50.252;18.848;2023-07-09T12:28:04;3.60;;;2.80;;
62435;SDS011;48480;50.252;18.848;2023-07-09T12:30:49;5.10;;;2.80;;
62435;SDS011;48480;50.252;18.848;2023-07-09T12:33:34;4.20;;;3.10;;
62435;SDS011;48480;50.252;18.848;2023-07-09T12:36:20;4.40;;;3.70;;
62435;SDS011;48480;50.252;18.848;2023-07-09T12:39:08;4.20;;;3.40;;
62435;SDS011;48480;50.252;18.848;2023-07-09T12:41:59;3.80;;;3.30;;
62435;SDS011;48480;50.252;18.848;2023-07-09T12:44:46;5.20;;;3.10;;
62435;SDS011;48480;50.252;18.848;2023-07-09T12:47:32;4.60;;;3.20;;
62435;SDS011;48480;50.252;18.848;2023-07-09T12:53:19;3.70;;;3.00;;
62435;SDS011;48480;50.252;18.848;2023-07-09T12:56:11;5.50;;;2.90;;
62435;SDS011;48480;50.252;18.848;2023-07-09T12:58:57;4.70;;;3.10;;
62435;SDS011;48480;50.252;18.848;2023-07-09T13:01:41;5.70;;;3.40;;
62435;SDS011;48480;50.252;18.848;2023-07-09T13:04:31;3.30;;;2.80;;
62435;SDS011;48480;50.252;18.848;2023-07-09T13:13:01;4.10;;;2.90;;
62435;SDS011;48480;50.252;18.848;2023-07-09T13:15:49;4.40;;;3.20;;
62435;SDS011;48480;50.252;18.848;2023-07-09T13:18:40;4.20;;;3.20;;
62435;SDS011;48480;50.252;18.848;2023-07-09T13:21:34;3.80;;;2.90;;
62435;SDS011;48480;50.252;18.848;2023-07-09T13:24:23;4.50;;;3.30;;
62435;SDS011;48480;50.252;18.848;2023-07-09T13:27:12;4.40;;;3.40;;
62435;SDS011;48480;50.252;18.848;2023-07-09T13:30:00;6.50;;;3.30;;
62435;SDS011;48480;50.252;18.848;2023-07-09T13:32:45;4.00;;;3.20;;
62435;SDS011;48480;50.252;18.848;2023-07-09T13:35:32;4.10;;;3.10;;
62435;SDS011;48480;50.252;18.848;2023-07-09T13:38:17;3.90;;;3.00;;
62435;SDS011;48480;50.252;18.848;2023-07-09T13:41:13;4.40;;;3.10;;
62435;SDS011;48480;50.252;18.848;2023-07-09T13:43:59;4.80;;;3.10;;
62435;SDS011;48480;50.252;18.848;2023-07-09T13:46:44;4.10;;;3.00;;
62435;SDS011;48480;50.252;18.848;2023-07-09T13:49:28;3.90;;;3.20;;
62435;SDS011;48480;50.252;18.848;2023-07-09T13:52:14;3.40;;;3.10;;
62435;SDS011;48480;50.252;18.848;2023-07-09T13:55:01;4.30;;;2.90;;
62435;SDS011;48480;50.252;18.848;2023-07-09T13:57:47;3.90;;;3.20;;
62435;SDS011;48480;50.252;18.848;2023-07-09T14:00:32;3.00;;;2.70;;
62435;SDS011;48480;50.252;18.848;2023-07-09T14:03:21;3.10;;;2.80;;
62435;SDS011;48480;50.252;18.848;2023-07-09T14:06:09;3.10;;;2.80;;
62435;SDS011;48480;50.252;18.848;2023-07-09T14:08:55;5.90;;;3.10;;
62435;SDS011;48480;50.252;18.848;2023-07-09T14:11:50;4.40;;;2.90;;
62435;SDS011;48480;50.252;18.848;2023-07-09T14:14:35;3.30;;;2.90;;
62435;SDS011;48480;50.252;18.848;2023-07-09T14:17:19;4.70;;;3.20;;
62435;SDS011;48480;50.252;18.848;2023-07-09T14:20:05;4.10;;;2.80;;
62435;SDS011;48480;50.252;18.848;2023-07-09T14:22:52;4.60;;;2.90;;
62435;SDS011;48480;50.252;18.848;2023-07-09T14:25:37;3.40;;;3.10;;
62435;SDS011;48480;50.252;18.848;2023-07-09T14:28:21;3.50;;;3.20;;
62435;SDS011;48480;50.252;18.848;2023-07-09T14:31:12;4.20;;;2.90;;
62435;SDS011;48480;50.252;18.848;2023-07-09T14:34:15;3.90;;;3.10;;
62435;SDS011;48480;50.252;18.848;2023-07-09T14:37:06;4.70;;;3.20;;
62435;SDS011;48480;50.252;18.848;2023-07-09T14:39:52;4.00;;;3.40;;
62435;SDS011;48480;50.252;18.848;2023-07-09T14:42:39;4.90;;;3.10;;
62435;SDS011;48480;50.252;18.848;2023-07-09T14:45:25;3.80;;;3.00;;
62435;SDS011;48480;50.252;18.848;2023-07-09T14:48:14;3.90;;;3.20;;
62435;SDS011;48480;50.252;18.848;2023-07-09T14:51:07;4.60;;;3.40;;
62435;SDS011;48480;50.252;18.848;2023-07-09T14:54:19;5.90;;;3.10;;
62435;SDS011;48480;50.252;18.848;2023-07-09T14:57:17;3.20;;;2.90;;
62435;SDS011;48480;50.252;18.848;2023-07-09T15:00:07;4.00;;;3.30;;
62435;SDS011;48480;50.252;18.848;2023-07-09T15:02:55;4.30;;;3.00;;
62435;SDS011;48480;50.252;18.848;2023-07-09T15:05:39;4.20;;;3.10;;
62435;SDS011;48480;50.252;18.848;2023-07-09T15:08:24;3.80;;;3.50;;
62435;SDS011;48480;50.252;18.848;2023-07-09T15:11:09;5.40;;;3.40;;
62435;SDS011;48480;50.252;18.848;2023-07-09T15:13:54;3.50;;;3.10;;
62435;SDS011;48480;50.252;18.848;2023-07-09T15:16:38;4.50;;;3.40;;
62435;SDS011;48480;50.252;18.848;2023-07-09T15:19:22;4.50;;;3.30;;
62435;SDS011;48480;50.252;18.848;2023-07-09T15:22:14;3.80;;;3.20;;
62435;SDS011;48480;50.252;18.848;2023-07-09T15:25:28;4.40;;;3.20;;
62435;SDS011;48480;50.252;18.848;2023-07-09T15:28:14;4.10;;;3.10;;
62435;SDS011;48480;50.252;18.848;2023-07-09T15:30:58;3.80;;;3.10;;
62435;SDS011;48480;50.252;18.848;2023-07-09T15:33:42;4.00;;;3.20;;
62435;SDS011;48480;50.252;18.848;2023-07-09T15:36:27;4.60;;;3.20;;
62435;SDS011;48480;50.252;18.848;2023-07-09T15:39:12;4.30;;;3.20;;
62435;SDS011;48480;50.252;18.848;2023-07-09T15:41:56;3.90;;;3.40;;
62435;SDS011;48480;50.252;18.848;2023-07-09T15:44:41;5.00;;;3.10;;
62435;SDS011;48480;50.252;18.848;2023-07-09T15:47:26;3.60;;;3.20;;
62435;SDS011;48480;50.252;18.848;2023-07-09T15:50:20;4.20;;;3.40;;
62435;SDS011;48480;50.252;18.848;2023-07-09T15:53:08;4.50;;;3.20;;
62435;SDS011;48480;50.252;18.848;2023-07-09T15:55:58;5.60;;;3.50;;
62435;SDS011;48480;50.252;18.848;2023-07-09T15:58:57;6.10;;;3.30;;
62435;SDS011;48480;50.252;18.848;2023-07-09T16:01:42;3.60;;;3.00;;
62435;SDS011;48480;50.252;18.848;2023-07-09T16:04:27;3.50;;;3.00;;
62435;SDS011;48480;50.252;18.848;2023-07-09T16:07:11;3.80;;;3.10;;
62435;SDS011;48480;50.252;18.848;2023-07-09T16:09:55;3.80;;;2.90;;
62435;SDS011;48480;50.252;18.848;2023-07-09T16:12:39;4.90;;;3.40;;
62435;SDS011;48480;50.252;18.848;2023-07-09T16:15:24;4.70;;;3.40;;
62435;SDS011;48480;50.252;18.848;2023-07-09T16:18:16;3.00;;;2.70;;
62435;SDS011;48480;50.252;18.848;2023-07-09T16:21:03;4.20;;;2.70;;
62435;SDS011;48480;50.252;18.848;2023-07-09T16:23:47;5.50;;;3.20;;
62435;SDS011;48480;50.252;18.848;2023-07-09T16:26:31;3.90;;;2.90;;
62435;SDS011;48480;50.252;18.848;2023-07-09T16:29:18;5.80;;;3.50;;
62435;SDS011;48480;50.252;18.848;2023-07-09T16:32:07;4.20;;;2.60;;
62435;SDS011;48480;50.252;18.848;2023-07-09T16:34:52;4.00;;;3.10;;
62435;SDS011;48480;50.252;18.848;2023-07-09T16:37:37;3.50;;;2.60;;
62435;SDS011;48480;50.252;18.848;2023-07-09T16:40:23;3.90;;;2.80;;
62435;SDS011;48480;50.252;18.848;2023-07-09T16:43:16;3.20;;;2.80;;
62435;SDS011;48480;50.252;18.848;2023-07-09T16:46:18;4.30;;;2.60;;
62435;SDS011;48480;50.252;18.848;2023-07-09T16:49:13;5.00;;;2.80;;
62435;SDS011;48480;50.252;18.848;2023-07-09T16:52:21;3.30;;;2.70;;
62435;SDS011;48480;50.252;18.848;2023-07-09T16:55:13;4.60;;;2.70;;
62435;SDS011;48480;50.252;18.848;2023-07-09T16:58:00;3.70;;;2.60;;
62435;SDS011;48480;50.252;18.848;2023-07-09T17:00:45;4.70;;;2.80;;
62435;SDS011;48480;50.252;18.848;2023-07-09T17:03:30;4.10;;;2.50;;
62435;SDS011;48480;50.252;18.848;2023-07-09T17:06:15;3.70;;;2.60;;
62435;SDS011;48480;50.252;18.848;2023-07-09T17:08:59;3.70;;;2.70;;
62435;SDS011;48480;50.252;18.848;2023-07-09T17:11:44;3.80;;;2.60;;
62435;SDS011;48480;50.252;18.848;2023-07-09T17:14:29;5.70;;;2.80;;